Martin Challenger — WDB2346 — position and weather

sailwx.info

Track history (hours):
 
Tides and Currents Weather Stations Pressure Air Temp Water Temp Dewpoint Dewpoint Depression Visibility Wind Speed Wind Dir Waves Ship Positions

Martin Challenger

Owner: MARTIN OPERATING PARTNERSHIP LP, VIDOR, TX. More information available from US FCC via Universal Licensing System and Coast Guard Vessel Documentation Center.

Last reported at 2014-Oct-17 03:15 UTC. Time now 2014-Oct-22 15:28 UTC.
Position N 29°23' W 094°53'.

Length 20 m; draft 2.9 m.

MMSI: 366874920.

Date/timePositionNaut miles runAvg speedWind from/ knotsBaromVisibWave heightAir tempDewpointWater temp
2014-Oct-17 03:15N 29°23' W 094°53'3 4.4
2014-Oct-17 02:33N 29°22' W 094°50'7 3.5
2014-Oct-17 00:32N 29°29' W 094°52'5 5.0
2014-Oct-16 23:33N 29°33' W 094°55'5 4.7
2014-Oct-16 22:33N 29°37' W 094°58'5 4.6
2014-Oct-16 21:33N 29°41' W 094°59'3 2.9
2014-Oct-16 20:33N 29°44' W 095°01'0 0.0
2014-Oct-16 19:33N 29°44' W 095°01'0 0.0
2014-Oct-16 18:33N 29°44' W 095°01'0 0.0
2014-Oct-16 17:33N 29°44' W 095°01'0 0.1
2014-Oct-16 16:33N 29°44' W 095°01'0 0.0
2014-Oct-16 15:33N 29°44' W 095°01'0 0.0
2014-Oct-16 14:32N 29°44' W 095°01'0 0.0
2014-Oct-16 13:33N 29°44' W 095°01'0 0.0
2014-Oct-16 12:33N 29°44' W 095°01'0 0.0
2014-Oct-16 11:33N 29°44' W 095°01'0 0.0
2014-Oct-16 10:33N 29°44' W 095°01'0 0.0
2014-Oct-16 09:33N 29°44' W 095°01'0 0.0
2014-Oct-16 08:33N 29°44' W 095°01'0 0.0
2014-Oct-16 07:33N 29°44' W 095°01'0 0.0
2014-Oct-16 06:32N 29°44' W 095°01'0 0.0
2014-Oct-16 05:33N 29°44' W 095°01'0 0.0
2014-Oct-16 04:33N 29°44' W 095°01'0 0.0
2014-Oct-16 03:33N 29°44' W 095°01'0 0.0
2014-Oct-16 02:33N 29°44' W 095°01'0 0.0
2014-Oct-16 01:33N 29°44' W 095°01'0 0.0
2014-Oct-16 00:33N 29°44' W 095°01'0 0.0
2014-Oct-15 23:33N 29°44' W 095°01'0 0.0
2014-Oct-15 22:33N 29°44' W 095°01'0 0.0
2014-Oct-15 21:33N 29°44' W 095°01'0 0.0
2014-Oct-15 20:33N 29°44' W 095°01'0 0.1
2014-Oct-15 19:33N 29°44' W 095°01'0 0.0
2014-Oct-15 18:33N 29°44' W 095°01'0 0.0
2014-Oct-15 17:33N 29°44' W 095°01'0 0.0
2014-Oct-15 16:33N 29°44' W 095°01'0 0.0
2014-Oct-15 15:33N 29°44' W 095°01'0 0.0
2014-Oct-15 14:33N 29°44' W 095°01'0 0.0
2014-Oct-15 13:33N 29°44' W 095°01'0 0.0
2014-Oct-15 12:33N 29°44' W 095°01'0 0.0
2014-Oct-15 11:33N 29°44' W 095°01'0 0.0
2014-Oct-15 10:33N 29°44' W 095°01'0 0.0
2014-Oct-15 09:33N 29°44' W 095°01'0 0.0
2014-Oct-15 08:33N 29°44' W 095°01'0 0.0
2014-Oct-15 07:33N 29°44' W 095°01'1 1.0
2014-Oct-15 06:33N 29°44' W 095°02'4 3.0
2014-Oct-15 05:23N 29°46' W 095°05'1 0.0
2014-Oct-14 12:29N 29°46' W 095°06'1 0.0
2014-Oct-13 19:22N 29°46' W 095°06'1 0.0
2014-Oct-12 22:07N 29°46' W 095°06'1 1.4
2014-Oct-12 21:33N 29°46' W 095°05'1 0.2
2014-Oct-12 17:08N 29°47' W 095°05'2 3.5
2014-Oct-12 16:33N 29°45' W 095°04'5 5.0
2014-Oct-12 15:33N 29°41' W 094°59'6 5.8
2014-Oct-12 14:33N 29°36' W 094°57'6 6.0
2014-Oct-12 13:33N 29°31' W 094°53'8 0.2
2014-Oct-11 00:15N 29°23' W 094°53'4 4.7
2014-Oct-10 23:22N 29°22' W 094°48'25 0.6
2014-Oct-09 02:13N 29°44' W 095°01'0 0.0
2014-Oct-09 01:33N 29°44' W 095°01'0 0.0
2014-Oct-09 00:33N 29°44' W 095°01'0 0.0
2014-Oct-08 23:33N 29°44' W 095°01'0 0.0
2014-Oct-08 22:31N 29°44' W 095°01'0 0.0
2014-Oct-08 21:33N 29°44' W 095°01'0 0.0
2014-Oct-08 20:31N 29°44' W 095°01'0 0.0
2014-Oct-08 19:33N 29°44' W 095°01'0 0.0
2014-Oct-08 18:33N 29°44' W 095°01'0 0.0
2014-Oct-08 17:32N 29°44' W 095°01'0 0.0
2014-Oct-08 16:33N 29°44' W 095°01'0 0.0
2014-Oct-08 15:33N 29°44' W 095°01'0 0.0
2014-Oct-08 14:33N 29°44' W 095°01'0 0.0
2014-Oct-08 13:33N 29°44' W 095°01'0 0.0
2014-Oct-08 12:33N 29°44' W 095°01'0 0.0
2014-Oct-08 11:20N 29°44' W 095°01'0 0.0
2014-Oct-08 05:33N 29°44' W 095°01'0 0.0
2014-Oct-08 04:33N 29°44' W 095°01'0 0.0
2014-Oct-08 03:33N 29°44' W 095°01'0 0.0
2014-Oct-08 02:33N 29°44' W 095°01'0 0.1
2014-Oct-08 01:33N 29°44' W 095°01'2 1.5
2014-Oct-08 00:34N 29°44' W 095°03'0 0.0
2014-Oct-07 23:33N 29°44' W 095°03'0 0.0
2014-Oct-07 22:33N 29°44' W 095°03'0 0.0
2014-Oct-07 21:33N 29°44' W 095°03'0 0.0
2014-Oct-07 20:32N 29°44' W 095°03'0 0.0
2014-Oct-07 19:33N 29°44' W 095°03'0 0.0
2014-Oct-07 18:33N 29°44' W 095°03'0 0.0
2014-Oct-07 17:33N 29°44' W 095°03'0 0.0
2014-Oct-07 14:14N 29°44' W 095°03'0 0.0
2014-Oct-07 13:33N 29°44' W 095°03'0 0.0
2014-Oct-07 12:33N 29°44' W 095°03'0 0.0
2014-Oct-07 11:33N 29°44' W 095°03'  
Track history (hours):
 
Tides and Currents Weather Stations Pressure Air Temp Water Temp Dewpoint Dewpoint Depression Visibility Wind Speed Wind Dir Waves Ship Positions

Martin Challenger

Owner: MARTIN OPERATING PARTNERSHIP LP, VIDOR, TX. More information available from US FCC via Universal Licensing System and Coast Guard Vessel Documentation Center.

Last reported at 2014-Oct-17 03:15 UTC. Time now 2014-Oct-22 15:28 UTC.
Position N 29°23' W 094°53'.

Length 20 m; draft 2.9 m.

MMSI: 366874920.

Date/timePositionNaut miles runAvg speedWind from/ knotsBaromVisibWave heightAir tempDewpointWater temp
2014-Oct-17 03:15N 29°23' W 094°53'3 4.4
2014-Oct-17 02:33N 29°22' W 094°50'7 3.5
2014-Oct-17 00:32N 29°29' W 094°52'5 5.0
2014-Oct-16 23:33N 29°33' W 094°55'5 4.7
2014-Oct-16 22:33N 29°37' W 094°58'5 4.6
2014-Oct-16 21:33N 29°41' W 094°59'3 2.9
2014-Oct-16 20:33N 29°44' W 095°01'0 0.0
2014-Oct-16 19:33N 29°44' W 095°01'0 0.0
2014-Oct-16 18:33N 29°44' W 095°01'0 0.0
2014-Oct-16 17:33N 29°44' W 095°01'0 0.1
2014-Oct-16 16:33N 29°44' W 095°01'0 0.0
2014-Oct-16 15:33N 29°44' W 095°01'0 0.0
2014-Oct-16 14:32N 29°44' W 095°01'0 0.0
2014-Oct-16 13:33N 29°44' W 095°01'0 0.0
2014-Oct-16 12:33N 29°44' W 095°01'0 0.0
2014-Oct-16 11:33N 29°44' W 095°01'0 0.0
2014-Oct-16 10:33N 29°44' W 095°01'0 0.0
2014-Oct-16 09:33N 29°44' W 095°01'0 0.0
2014-Oct-16 08:33N 29°44' W 095°01'0 0.0
2014-Oct-16 07:33N 29°44' W 095°01'0 0.0
2014-Oct-16 06:32N 29°44' W 095°01'0 0.0
2014-Oct-16 05:33N 29°44' W 095°01'0 0.0
2014-Oct-16 04:33N 29°44' W 095°01'0 0.0
2014-Oct-16 03:33N 29°44' W 095°01'0 0.0
2014-Oct-16 02:33N 29°44' W 095°01'0 0.0
2014-Oct-16 01:33N 29°44' W 095°01'0 0.0
2014-Oct-16 00:33N 29°44' W 095°01'0 0.0
2014-Oct-15 23:33N 29°44' W 095°01'0 0.0
2014-Oct-15 22:33N 29°44' W 095°01'0 0.0
2014-Oct-15 21:33N 29°44' W 095°01'0 0.0
2014-Oct-15 20:33N 29°44' W 095°01'0 0.1
2014-Oct-15 19:33N 29°44' W 095°01'0 0.0
2014-Oct-15 18:33N 29°44' W 095°01'0 0.0
2014-Oct-15 17:33N 29°44' W 095°01'0 0.0
2014-Oct-15 16:33N 29°44' W 095°01'0 0.0
2014-Oct-15 15:33N 29°44' W 095°01'0 0.0
2014-Oct-15 14:33N 29°44' W 095°01'0 0.0
2014-Oct-15 13:33N 29°44' W 095°01'0 0.0
2014-Oct-15 12:33N 29°44' W 095°01'0 0.0
2014-Oct-15 11:33N 29°44' W 095°01'0 0.0
2014-Oct-15 10:33N 29°44' W 095°01'0 0.0
2014-Oct-15 09:33N 29°44' W 095°01'0 0.0
2014-Oct-15 08:33N 29°44' W 095°01'0 0.0
2014-Oct-15 07:33N 29°44' W 095°01'1 1.0
2014-Oct-15 06:33N 29°44' W 095°02'4 3.0
2014-Oct-15 05:23N 29°46' W 095°05'1 0.0
2014-Oct-14 12:29N 29°46' W 095°06'1 0.0
2014-Oct-13 19:22N 29°46' W 095°06'1 0.0
2014-Oct-12 22:07N 29°46' W 095°06'1 1.4
2014-Oct-12 21:33N 29°46' W 095°05'1 0.2
2014-Oct-12 17:08N 29°47' W 095°05'2 3.5
2014-Oct-12 16:33N 29°45' W 095°04'5 5.0
2014-Oct-12 15:33N 29°41' W 094°59'6 5.8
2014-Oct-12 14:33N 29°36' W 094°57'6 6.0
2014-Oct-12 13:33N 29°31' W 094°53'8 0.2
2014-Oct-11 00:15N 29°23' W 094°53'4 4.7
2014-Oct-10 23:22N 29°22' W 094°48'25 0.6
2014-Oct-09 02:13N 29°44' W 095°01'0 0.0
2014-Oct-09 01:33N 29°44' W 095°01'0 0.0
2014-Oct-09 00:33N 29°44' W 095°01'0 0.0
2014-Oct-08 23:33N 29°44' W 095°01'0 0.0
2014-Oct-08 22:31N 29°44' W 095°01'0 0.0
2014-Oct-08 21:33N 29°44' W 095°01'0 0.0
2014-Oct-08 20:31N 29°44' W 095°01'0 0.0
2014-Oct-08 19:33N 29°44' W 095°01'0 0.0
2014-Oct-08 18:33N 29°44' W 095°01'0 0.0
2014-Oct-08 17:32N 29°44' W 095°01'0 0.0
2014-Oct-08 16:33N 29°44' W 095°01'0 0.0
2014-Oct-08 15:33N 29°44' W 095°01'0 0.0
2014-Oct-08 14:33N 29°44' W 095°01'0 0.0
2014-Oct-08 13:33N 29°44' W 095°01'0 0.0
2014-Oct-08 12:33N 29°44' W 095°01'0 0.0
2014-Oct-08 11:20N 29°44' W 095°01'0 0.0
2014-Oct-08 05:33N 29°44' W 095°01'0 0.0
2014-Oct-08 04:33N 29°44' W 095°01'0 0.0
2014-Oct-08 03:33N 29°44' W 095°01'0 0.0
2014-Oct-08 02:33N 29°44' W 095°01'0 0.1
2014-Oct-08 01:33N 29°44' W 095°01'2 1.5
2014-Oct-08 00:34N 29°44' W 095°03'0 0.0
2014-Oct-07 23:33N 29°44' W 095°03'0 0.0
2014-Oct-07 22:33N 29°44' W 095°03'0 0.0
2014-Oct-07 21:33N 29°44' W 095°03'0 0.0
2014-Oct-07 20:32N 29°44' W 095°03'0 0.0
2014-Oct-07 19:33N 29°44' W 095°03'0 0.0
2014-Oct-07 18:33N 29°44' W 095°03'0 0.0
2014-Oct-07 17:33N 29°44' W 095°03'0 0.0
2014-Oct-07 14:14N 29°44' W 095°03'0 0.0
2014-Oct-07 13:33N 29°44' W 095°03'0 0.0
2014-Oct-07 12:33N 29°44' W 095°03'0 0.0
2014-Oct-07 11:33N 29°44' W 095°03'  

Dump ship's entire track history